createdAt,value
2023-01-06T00:01:26.518Z,-1.60
2023-01-06T00:03:59.055Z,-1.60
2023-01-06T00:06:33.326Z,-1.60
2023-01-06T00:09:06.169Z,-1.60
2023-01-06T00:11:36.414Z,-1.60
2023-01-06T00:14:07.051Z,-1.60
2023-01-06T00:16:38.242Z,-1.60
2023-01-06T00:19:08.443Z,-1.60
2023-01-06T00:21:43.146Z,-1.60
2023-01-06T00:24:14.044Z,-1.60
2023-01-06T00:26:44.145Z,-1.60
2023-01-06T00:29:14.703Z,-1.60
2023-01-06T00:31:44.893Z,-1.60
2023-01-06T00:34:15.104Z,-1.60
2023-01-06T00:36:46.855Z,-1.60
2023-01-06T00:39:17.157Z,-1.50
2023-01-06T00:42:04.246Z,-1.50
2023-01-06T00:44:35.511Z,-1.50
2023-01-06T00:47:06.746Z,-1.60
2023-01-06T00:49:37.362Z,-1.60
2023-01-06T00:52:09.384Z,-1.60
2023-01-06T00:54:39.806Z,-1.60
2023-01-06T00:57:11.344Z,-1.60
2023-01-06T00:59:41.737Z,-1.60
2023-01-06T01:02:12.147Z,-1.60
2023-01-06T01:04:42.475Z,-1.60
2023-01-06T01:07:16.074Z,-1.60
2023-01-06T01:09:48.269Z,-1.60
2023-01-06T01:12:18.639Z,-1.60
2023-01-06T01:14:52.172Z,-1.60
2023-01-06T01:17:26.299Z,-1.60
2023-01-06T01:19:59.965Z,-1.60
2023-01-06T01:22:33.054Z,-1.60
2023-01-06T01:25:04.445Z,-1.60
2023-01-06T01:27:34.792Z,-1.60
2023-01-06T01:30:05.569Z,-1.60
2023-01-06T01:32:38.102Z,-1.60
2023-01-06T01:35:09.005Z,-1.60
2023-01-06T01:37:42.613Z,-1.60
2023-01-06T01:40:14.136Z,-1.60
2023-01-06T01:42:44.318Z,-1.60
2023-01-06T01:45:27.714Z,-1.60
2023-01-06T01:48:04.816Z,-1.60
2023-01-06T01:50:38.703Z,-1.60
2023-01-06T01:53:15.863Z,-1.60
2023-01-06T01:55:46.843Z,-1.60
2023-01-06T01:58:23.103Z,-1.60
2023-01-06T02:00:54.588Z,-1.60
2023-01-06T02:03:26.856Z,-1.60
2023-01-06T02:06:00.264Z,-1.60
2023-01-06T02:08:40.078Z,-1.60
2023-01-06T02:11:11.607Z,-1.60
2023-01-06T02:13:45.633Z,-1.60
2023-01-06T02:16:25.150Z,-1.60
2023-01-06T02:19:02.038Z,-1.60
2023-01-06T02:21:49.447Z,-1.60
2023-01-06T02:25:05.144Z,-1.60
2023-01-06T02:28:18.118Z,-1.60
2023-01-06T02:32:05.114Z,-1.60
2023-01-06T02:35:19.581Z,-1.60
2023-01-06T02:38:12.492Z,-1.60
2023-01-06T02:40:54.347Z,-1.60
2023-01-06T02:43:31.809Z,-1.60
2023-01-06T02:46:12.647Z,-1.60
2023-01-06T02:48:51.120Z,-1.60
2023-01-06T02:51:30.389Z,-1.60
2023-01-06T02:54:09.786Z,-1.60
2023-01-06T02:56:43.270Z,-1.60
2023-01-06T02:59:21.984Z,-1.60
2023-01-06T03:01:55.164Z,-1.60
2023-01-06T03:04:29.823Z,-1.60
2023-01-06T03:07:03.073Z,-1.50
2023-01-06T03:09:37.041Z,-1.50
2023-01-06T03:12:13.907Z,-1.50
2023-01-06T03:14:48.123Z,-1.50
2023-01-06T03:17:18.355Z,-1.50
2023-01-06T03:19:48.628Z,-1.50
2023-01-06T03:22:21.210Z,-1.60
2023-01-06T03:24:52.101Z,-1.60
2023-01-06T03:27:27.402Z,-1.60
2023-01-06T03:29:57.741Z,-1.60
2023-01-06T03:32:32.054Z,-1.70
2023-01-06T03:35:15.131Z,-1.70
2023-01-06T03:37:54.854Z,-1.70
2023-01-06T03:40:35.199Z,-1.70
2023-01-06T03:43:14.196Z,-1.70
2023-01-06T03:45:52.760Z,-1.70
2023-01-06T03:48:31.879Z,-1.80
2023-01-06T03:51:10.356Z,-1.80
2023-01-06T03:53:47.758Z,-1.80
2023-01-06T03:56:23.269Z,-1.80
2023-01-06T03:58:59.695Z,-1.80
2023-01-06T04:01:30.979Z,-1.80
2023-01-06T04:04:01.726Z,-1.80
2023-01-06T04:06:32.015Z,-1.90
2023-01-06T04:09:03.799Z,-1.80
2023-01-06T04:12:05.397Z,-1.80
2023-01-06T04:14:35.783Z,-1.90
2023-01-06T04:17:05.881Z,-1.80
2023-01-06T04:19:36.039Z,-1.90
2023-01-06T04:22:06.235Z,-1.90
2023-01-06T04:24:38.006Z,-1.80
2023-01-06T04:27:08.065Z,-1.90
2023-01-06T04:29:38.226Z,-1.90
2023-01-06T04:32:08.522Z,-1.90
2023-01-06T04:34:38.641Z,-1.90
2023-01-06T04:37:08.828Z,-1.90
2023-01-06T04:39:40.520Z,-2.00
2023-01-06T04:42:10.755Z,-1.90
2023-01-06T04:44:41.038Z,-2.00
2023-01-06T04:47:11.513Z,-2.00
2023-01-06T04:49:41.858Z,-2.00
2023-01-06T04:52:12.158Z,-2.00
2023-01-06T04:54:43.888Z,-2.00
2023-01-06T04:57:13.947Z,-2.00
2023-01-06T04:59:44.553Z,-2.10
2023-01-06T05:02:14.834Z,-2.10
2023-01-06T05:04:48.019Z,-2.10
2023-01-06T05:07:18.377Z,-2.10
2023-01-06T05:09:57.123Z,-2.10
2023-01-06T05:12:27.302Z,-2.10
2023-01-06T05:14:57.531Z,-2.10
2023-01-06T05:17:27.841Z,-2.10
2023-01-06T05:19:58.051Z,-2.10
2023-01-06T05:22:28.192Z,-2.10
2023-01-06T05:25:00.016Z,-2.20
2023-01-06T05:27:30.296Z,-2.10
2023-01-06T05:30:00.665Z,-2.10
2023-01-06T05:32:30.890Z,-2.10
2023-01-06T05:35:01.335Z,-2.20
2023-01-06T05:37:31.430Z,-2.20
2023-01-06T05:40:03.860Z,-2.20
2023-01-06T05:42:34.009Z,-2.20
2023-01-06T05:45:04.511Z,-2.20
2023-01-06T05:47:34.611Z,-2.20
2023-01-06T05:50:04.956Z,-2.20
2023-01-06T05:52:35.172Z,-2.20
2023-01-06T05:55:07.645Z,-2.30
2023-01-06T05:57:38.400Z,-2.20
2023-01-06T06:00:10.602Z,-2.20
2023-01-06T06:02:40.976Z,-2.20
2023-01-06T06:05:11.617Z,-2.20
2023-01-06T06:07:41.763Z,-2.10
2023-01-06T06:10:13.611Z,-2.10
2023-01-06T06:12:43.711Z,-2.10
2023-01-06T06:15:14.038Z,-2.10
2023-01-06T06:17:44.550Z,-2.20
2023-01-06T06:20:14.900Z,-2.10
2023-01-06T06:22:44.963Z,-2.20
2023-01-06T06:25:16.701Z,-2.20
2023-01-06T06:27:46.825Z,-2.20
2023-01-06T06:30:17.702Z,-2.30
2023-01-06T06:32:47.787Z,-2.30
2023-01-06T06:35:18.392Z,-2.30
2023-01-06T06:37:48.520Z,-2.30
2023-01-06T06:40:20.730Z,-2.40
2023-01-06T06:42:54.445Z,-2.40
2023-01-06T06:45:24.868Z,-2.40
2023-01-06T06:47:56.997Z,-2.40
2023-01-06T06:50:27.415Z,-2.40
2023-01-06T06:52:58.441Z,-2.40
2023-01-06T06:55:30.206Z,-2.40
2023-01-06T06:58:00.664Z,-2.30
2023-01-06T07:00:30.787Z,-2.30
2023-01-06T07:03:00.866Z,-2.30
2023-01-06T07:05:31.155Z,-2.30
2023-01-06T07:08:01.237Z,-2.30
2023-01-06T07:10:33.040Z,-2.20
2023-01-06T07:13:04.384Z,-2.30
2023-01-06T07:15:35.612Z,-2.20
2023-01-06T07:18:06.555Z,-2.20
2023-01-06T07:20:38.532Z,-2.20
2023-01-06T07:23:08.615Z,-2.20
2023-01-06T07:25:40.397Z,-2.30
2023-01-06T07:28:10.525Z,-2.30
2023-01-06T07:30:40.671Z,-2.30
2023-01-06T07:33:10.736Z,-2.30
2023-01-06T07:35:41.245Z,-2.30
2023-01-06T07:38:12.001Z,-2.30
2023-01-06T07:40:43.735Z,-2.30
2023-01-06T07:43:14.392Z,-2.30
2023-01-06T07:45:44.569Z,-2.40
2023-01-06T07:48:14.824Z,-2.40
2023-01-06T07:50:45.148Z,-2.40
2023-01-06T07:53:16.034Z,-2.40
2023-01-06T07:55:53.784Z,-2.40
2023-01-06T07:58:26.048Z,-2.40
2023-01-06T08:00:56.219Z,-2.40
2023-01-06T08:03:26.716Z,-2.40
2023-01-06T08:05:56.943Z,-2.40
2023-01-06T08:08:27.211Z,-2.40
2023-01-06T08:11:01.171Z,-2.40
2023-01-06T08:13:31.441Z,-2.40
2023-01-06T08:16:01.747Z,-2.40
2023-01-06T08:18:31.860Z,-2.40
2023-01-06T08:21:05.372Z,-2.40
2023-01-06T08:23:35.783Z,-2.40
2023-01-06T08:26:09.234Z,-2.40
2023-01-06T08:28:39.442Z,-2.30
2023-01-06T08:31:12.582Z,-2.40
2023-01-06T08:33:42.859Z,-2.40
2023-01-06T08:36:15.639Z,-2.40
2023-01-06T08:38:46.371Z,-2.40
2023-01-06T08:41:18.564Z,-2.40
2023-01-06T08:43:49.822Z,-2.40
2023-01-06T08:46:22.780Z,-2.40
2023-01-06T08:48:53.205Z,-2.40
2023-01-06T08:51:25.116Z,-2.40
2023-01-06T08:53:55.842Z,-2.30
2023-01-06T08:56:30.176Z,-2.30
2023-01-06T08:59:02.201Z,-2.30
2023-01-06T09:01:34.310Z,-2.30
2023-01-06T09:04:06.953Z,-2.30
2023-01-06T09:06:37.655Z,-2.30
2023-01-06T09:09:08.946Z,-2.30
2023-01-06T09:11:42.633Z,-2.30
2023-01-06T09:14:14.636Z,-2.30
2023-01-06T09:16:45.125Z,-2.30
2023-01-06T09:19:15.189Z,-2.30
2023-01-06T09:21:46.830Z,-2.30
2023-01-06T09:24:17.947Z,-2.30
2023-01-06T09:26:49.687Z,-2.30
2023-01-06T09:29:20.992Z,-2.30
2023-01-06T09:31:51.130Z,-2.30
2023-01-06T09:34:21.242Z,-2.20
2023-01-06T09:36:51.391Z,-2.20
2023-01-06T09:39:21.531Z,-2.20
2023-01-06T09:42:28.343Z,-2.20
2023-01-06T09:45:00.758Z,-2.20
2023-01-06T09:47:34.593Z,-2.20
2023-01-06T09:50:10.710Z,-2.20
2023-01-06T09:52:46.555Z,-2.20
2023-01-06T09:55:21.716Z,-2.10
2023-01-06T09:57:58.938Z,-2.10
2023-01-06T10:00:37.751Z,-2.10
2023-01-06T10:03:08.334Z,-2.10
2023-01-06T10:05:44.904Z,-2.10
2023-01-06T10:08:25.435Z,-2.10
2023-01-06T10:11:12.674Z,-2.10
2023-01-06T10:13:57.367Z,-2.00
2023-01-06T10:16:37.492Z,-2.00
2023-01-06T10:19:19.392Z,-2.00
2023-01-06T10:21:56.042Z,-2.00
2023-01-06T10:24:39.882Z,-2.00
2023-01-06T10:27:23.114Z,-2.00
2023-01-06T10:29:57.192Z,-2.00
2023-01-06T10:32:31.951Z,-2.00
2023-01-06T10:35:03.471Z,-1.90
2023-01-06T10:37:39.715Z,-1.90
2023-01-06T10:40:22.689Z,-1.90
2023-01-06T10:43:00.667Z,-1.90
2023-01-06T10:45:36.496Z,-1.80
2023-01-06T10:48:09.309Z,-1.80
2023-01-06T10:50:39.891Z,-1.80
2023-01-06T10:53:11.899Z,-1.80
2023-01-06T10:55:47.458Z,-1.80
2023-01-06T10:58:32.801Z,-1.80
2023-01-06T11:01:13.317Z,-1.80
2023-01-06T11:03:44.853Z,-1.80
2023-01-06T11:06:20.784Z,-1.80
2023-01-06T11:08:51.084Z,-1.80
2023-01-06T11:11:28.156Z,-1.80
2023-01-06T11:14:01.836Z,-1.80
2023-01-06T11:16:35.713Z,-1.80
2023-01-06T11:19:08.177Z,-1.80
2023-01-06T11:21:44.058Z,-1.70
2023-01-06T11:24:22.747Z,-1.80
2023-01-06T11:26:58.704Z,-1.70
2023-01-06T11:29:32.161Z,-1.70
2023-01-06T11:32:07.523Z,-1.70
2023-01-06T11:34:37.758Z,-1.70
2023-01-06T11:37:08.054Z,-1.70
2023-01-06T11:39:40.883Z,-1.70
2023-01-06T11:42:15.951Z,-1.70
2023-01-06T11:44:46.413Z,-1.70
2023-01-06T11:47:21.263Z,-1.70
2023-01-06T11:49:54.512Z,-1.70
2023-01-06T11:52:27.823Z,-1.70
2023-01-06T11:55:03.650Z,-1.70
2023-01-06T11:57:46.301Z,-1.70
2023-01-06T12:00:37.352Z,-1.70
2023-01-06T12:03:16.860Z,-1.70
2023-01-06T12:05:54.290Z,-1.70
2023-01-06T12:08:27.703Z,-1.70
2023-01-06T12:11:02.287Z,-1.70
2023-01-06T12:13:44.472Z,-1.70
2023-01-06T12:16:24.314Z,-1.60
2023-01-06T12:18:56.347Z,-1.60
2023-01-06T12:21:33.076Z,-1.60
2023-01-06T12:24:07.272Z,-1.60
2023-01-06T12:26:40.597Z,-1.60
2023-01-06T12:29:18.172Z,-1.60
2023-01-06T12:31:58.348Z,-1.60
2023-01-06T12:34:33.320Z,-1.60
2023-01-06T12:37:18.103Z,-1.60
2023-01-06T12:39:58.408Z,-1.60
2023-01-06T12:42:36.197Z,-1.60
2023-01-06T12:45:14.822Z,-1.60
2023-01-06T12:47:49.280Z,-1.60
2023-01-06T12:50:31.966Z,-1.60
2023-01-06T12:53:19.745Z,-1.60
2023-01-06T12:55:58.585Z,-1.60
2023-01-06T12:58:37.682Z,-1.60
2023-01-06T13:01:13.039Z,-1.60
2023-01-06T13:04:09.519Z,-1.60
2023-01-06T13:06:59.106Z,-1.50
2023-01-06T13:09:40.611Z,-1.60
2023-01-06T13:12:26.003Z,-1.50
2023-01-06T13:15:02.635Z,-1.50
2023-01-06T13:17:40.388Z,-1.50
2023-01-06T13:20:20.746Z,-1.50
2023-01-06T13:23:01.069Z,-1.50
2023-01-06T13:25:53.216Z,-1.50
2023-01-06T13:28:30.982Z,-1.40
2023-01-06T13:31:32.912Z,-1.40
2023-01-06T13:34:34.738Z,-1.50
2023-01-06T13:37:23.087Z,-1.40
2023-01-06T13:39:59.400Z,-1.40
2023-01-06T13:42:37.922Z,-1.50
2023-01-06T13:45:15.317Z,-1.40
2023-01-06T13:47:45.975Z,-1.40
2023-01-06T13:50:19.421Z,-1.40
2023-01-06T13:52:50.412Z,-1.40
2023-01-06T13:55:31.352Z,-1.40
2023-01-06T13:58:37.416Z,-1.30
2023-01-06T14:01:12.811Z,-1.30
2023-01-06T14:03:44.539Z,-1.30
2023-01-06T14:06:35.959Z,-1.20
2023-01-06T14:09:06.195Z,-1.30
2023-01-06T14:11:39.533Z,-1.20
2023-01-06T14:14:25.457Z,-1.20
2023-01-06T14:16:56.900Z,-1.20
2023-01-06T14:19:32.363Z,-1.20
2023-01-06T14:22:17.735Z,-1.10
2023-01-06T14:24:53.290Z,-1.10
2023-01-06T14:27:56.210Z,-1.00
2023-01-06T14:30:31.518Z,-1.00
2023-01-06T14:33:26.930Z,-0.90
2023-01-06T14:36:05.666Z,-1.00
2023-01-06T14:38:43.537Z,-1.00
2023-01-06T14:41:23.533Z,-0.90
2023-01-06T14:43:59.110Z,-0.80
2023-01-06T14:46:34.235Z,-0.80
2023-01-06T14:49:06.799Z,-0.70
2023-01-06T14:51:37.509Z,-0.70
2023-01-06T14:54:14.610Z,-0.70
2023-01-06T14:56:54.167Z,-0.60
2023-01-06T14:59:25.090Z,-0.50
2023-01-06T15:02:03.064Z,-0.50
2023-01-06T15:04:34.815Z,-0.40
2023-01-06T15:07:19.766Z,-0.40
2023-01-06T15:09:52.015Z,-0.30
2023-01-06T15:12:29.605Z,-0.20
2023-01-06T15:15:00.461Z,-0.20
2023-01-06T15:17:32.506Z,0.00
2023-01-06T15:20:02.712Z,0.00
2023-01-06T15:22:32.869Z,0.10
2023-01-06T15:25:03.153Z,0.10
2023-01-06T15:27:33.911Z,0.10
2023-01-06T15:30:04.258Z,0.00
2023-01-06T15:32:36.457Z,0.00
2023-01-06T15:35:07.677Z,-0.10
2023-01-06T15:37:38.947Z,0.00
2023-01-06T15:40:10.802Z,0.00
2023-01-06T15:42:43.456Z,0.00
2023-01-06T15:45:26.797Z,-0.10
2023-01-06T15:48:01.334Z,0.00
2023-01-06T15:50:33.332Z,0.00
2023-01-06T15:53:06.238Z,0.10
2023-01-06T15:55:38.221Z,0.20
2023-01-06T15:58:12.262Z,0.10
2023-01-06T16:00:48.745Z,0.10
2023-01-06T16:03:23.711Z,0.20
2023-01-06T16:06:03.060Z,0.10
2023-01-06T16:08:40.656Z,0.20
2023-01-06T16:11:46.423Z,0.40
2023-01-06T16:14:35.746Z,0.50
2023-01-06T16:17:11.965Z,0.70
2023-01-06T16:19:49.566Z,0.80
2023-01-06T16:22:33.578Z,0.80
2023-01-06T16:25:06.045Z,0.90
2023-01-06T16:27:36.246Z,1.00
2023-01-06T16:30:28.375Z,1.10
2023-01-06T16:33:00.878Z,0.90
2023-01-06T16:35:34.812Z,0.90
2023-01-06T16:38:05.046Z,0.80
2023-01-06T16:40:35.192Z,0.90
2023-01-06T16:43:06.000Z,0.80
2023-01-06T16:45:40.205Z,0.90
2023-01-06T16:48:16.650Z,0.60
2023-01-06T16:50:51.234Z,0.60
2023-01-06T16:53:22.736Z,0.70
2023-01-06T16:55:55.748Z,0.80
2023-01-06T16:58:27.756Z,0.80
2023-01-06T17:01:01.285Z,0.80
2023-01-06T17:03:33.535Z,0.80
2023-01-06T17:06:05.438Z,0.90
2023-01-06T17:08:39.776Z,0.90
2023-01-06T17:11:17.964Z,0.80
2023-01-06T17:13:55.743Z,0.90
2023-01-06T17:16:30.339Z,0.90
2023-01-06T17:19:01.840Z,1.10
2023-01-06T17:21:37.639Z,1.20
2023-01-06T17:24:14.937Z,1.20
2023-01-06T17:26:51.127Z,1.20
2023-01-06T17:29:23.152Z,1.20
2023-01-06T17:31:55.217Z,1.30
2023-01-06T17:34:32.300Z,1.30
2023-01-06T17:37:13.359Z,1.30
2023-01-06T17:39:45.493Z,1.20
2023-01-06T17:42:31.269Z,1.20
2023-01-06T17:45:02.784Z,1.10
2023-01-06T17:47:40.712Z,1.10
2023-01-06T17:50:29.412Z,1.00
2023-01-06T17:53:33.733Z,1.00
2023-01-06T17:56:05.673Z,1.00
2023-01-06T17:58:38.934Z,1.00
2023-01-06T18:01:11.387Z,1.10
2023-01-06T18:03:45.013Z,1.10
2023-01-06T18:06:23.416Z,1.20
2023-01-06T18:09:02.736Z,1.40
2023-01-06T18:11:36.617Z,1.40
2023-01-06T18:14:35.074Z,1.30
2023-01-06T18:17:17.405Z,1.20
2023-01-06T18:19:47.844Z,1.10
2023-01-06T18:22:20.647Z,1.20
2023-01-06T18:24:54.149Z,1.20
2023-01-06T18:27:27.919Z,1.20
2023-01-06T18:30:02.708Z,1.30
2023-01-06T18:32:34.873Z,1.40
2023-01-06T18:35:17.064Z,1.60
2023-01-06T18:37:47.549Z,1.70
2023-01-06T18:40:22.338Z,1.80
2023-01-06T18:42:53.911Z,1.80
2023-01-06T18:45:26.604Z,1.90
2023-01-06T18:47:58.986Z,2.00
2023-01-06T18:50:35.062Z,1.90
2023-01-06T18:53:07.612Z,1.90
2023-01-06T18:55:43.477Z,1.90
2023-01-06T18:58:37.070Z,1.80
2023-01-06T19:01:18.259Z,1.70
2023-01-06T19:04:01.177Z,1.70
2023-01-06T19:06:40.635Z,1.70
2023-01-06T19:09:24.013Z,1.70
2023-01-06T19:12:02.733Z,1.70
2023-01-06T19:14:36.381Z,1.70
2023-01-06T19:17:15.390Z,1.70
2023-01-06T19:19:46.037Z,1.80
2023-01-06T19:22:26.092Z,1.80
2023-01-06T19:25:01.673Z,1.70
2023-01-06T19:27:40.299Z,1.60
2023-01-06T19:30:44.568Z,1.60
2023-01-06T19:33:26.747Z,1.50
2023-01-06T19:36:04.735Z,1.50
2023-01-06T19:38:39.276Z,1.50
2023-01-06T19:41:16.040Z,1.40
2023-01-06T19:43:47.716Z,1.40
2023-01-06T19:46:23.475Z,1.40
2023-01-06T19:48:54.278Z,1.40
2023-01-06T19:51:30.920Z,1.30
2023-01-06T19:54:03.505Z,1.30
2023-01-06T19:56:37.367Z,1.20
2023-01-06T19:59:17.589Z,1.20
2023-01-06T20:01:48.504Z,1.20
2023-01-06T20:04:23.742Z,1.10
2023-01-06T20:06:54.087Z,1.10
2023-01-06T20:09:24.542Z,1.10
2023-01-06T20:11:55.266Z,1.10
2023-01-06T20:14:26.967Z,1.00
2023-01-06T20:16:57.741Z,1.00
2023-01-06T20:19:27.887Z,1.00
2023-01-06T20:21:58.764Z,1.00
2023-01-06T20:24:29.224Z,1.00
2023-01-06T20:26:59.453Z,0.90
2023-01-06T20:29:31.151Z,0.90
2023-01-06T20:32:01.397Z,0.80
2023-01-06T20:34:31.616Z,0.80
2023-01-06T20:37:02.094Z,0.80
2023-01-06T20:39:32.543Z,0.80
2023-01-06T20:42:04.961Z,0.80
2023-01-06T20:44:36.703Z,0.80
2023-01-06T20:47:07.211Z,0.70
2023-01-06T20:49:37.451Z,0.80
2023-01-06T20:52:08.160Z,0.70
2023-01-06T20:54:38.272Z,0.70
2023-01-06T20:57:08.397Z,0.70
2023-01-06T20:59:40.376Z,0.70
2023-01-06T21:02:10.621Z,0.70
2023-01-06T21:04:40.843Z,0.70
2023-01-06T21:07:11.043Z,0.60
2023-01-06T21:09:41.114Z,0.60
2023-01-06T21:12:11.378Z,0.60
2023-01-06T21:14:43.100Z,0.60
2023-01-06T21:17:13.295Z,0.60
2023-01-06T21:19:43.399Z,0.60
2023-01-06T21:22:13.787Z,0.60
2023-01-06T21:24:43.913Z,0.60
2023-01-06T21:27:14.091Z,0.60
2023-01-06T21:29:46.008Z,0.50
2023-01-06T21:32:16.267Z,0.50
2023-01-06T21:34:46.352Z,0.50
2023-01-06T21:37:16.476Z,0.50
2023-01-06T21:39:48.041Z,0.50
2023-01-06T21:42:35.178Z,0.50
2023-01-06T21:45:07.970Z,0.50
2023-01-06T21:47:38.168Z,0.50
2023-01-06T21:50:09.532Z,0.50
2023-01-06T21:52:40.178Z,0.40
2023-01-06T21:55:11.220Z,0.40
2023-01-06T21:57:42.233Z,0.40
2023-01-06T22:00:15.045Z,0.40
2023-01-06T22:02:49.089Z,0.40
2023-01-06T22:05:19.355Z,0.40
2023-01-06T22:07:52.043Z,0.40
2023-01-06T22:10:25.203Z,0.40
2023-01-06T22:12:59.813Z,0.40
2023-01-06T22:15:32.254Z,0.40
2023-01-06T22:18:04.062Z,0.40
2023-01-06T22:20:34.902Z,0.40
2023-01-06T22:23:08.972Z,0.40
2023-01-06T22:25:39.118Z,0.40
2023-01-06T22:28:09.817Z,0.40
2023-01-06T22:30:41.575Z,0.40
2023-01-06T22:33:11.794Z,0.40
2023-01-06T22:35:41.883Z,0.40
2023-01-06T22:38:12.243Z,0.40
2023-01-06T22:40:42.399Z,0.40
2023-01-06T22:43:12.615Z,0.40
2023-01-06T22:45:44.300Z,0.40
2023-01-06T22:48:14.436Z,0.40
2023-01-06T22:50:44.572Z,0.40
2023-01-06T22:53:15.022Z,0.40
2023-01-06T22:55:45.123Z,0.40
2023-01-06T22:58:15.902Z,0.30
2023-01-06T23:00:47.557Z,0.30
2023-01-06T23:03:17.793Z,0.30
2023-01-06T23:05:55.657Z,0.30
2023-01-06T23:08:26.064Z,0.30
2023-01-06T23:11:02.128Z,0.30
2023-01-06T23:13:32.964Z,0.30
2023-01-06T23:16:06.114Z,0.30
2023-01-06T23:18:38.064Z,0.30
2023-01-06T23:21:10.034Z,0.30
2023-01-06T23:23:41.635Z,0.40
2023-01-06T23:26:14.412Z,0.40
2023-01-06T23:28:45.646Z,0.40
2023-01-06T23:31:18.936Z,0.40
2023-01-06T23:33:51.263Z,0.40
2023-01-06T23:36:22.636Z,0.40
2023-01-06T23:38:53.235Z,0.40
2023-01-06T23:41:25.224Z,0.50
2023-01-06T23:43:56.673Z,0.50
2023-01-06T23:46:30.351Z,0.50
2023-01-06T23:49:01.045Z,0.50
2023-01-06T23:51:33.885Z,0.50
2023-01-06T23:54:05.503Z,0.50
2023-01-06T23:56:39.603Z,0.50
2023-01-06T23:59:13.015Z,0.50
